Kezdőlap
METAR-TAF:

METAR-TAF

Repülőterek :

Frederick, Oklahoma, Amerikai Egyesült Államok

földrajzi szélesség: 34-20-40N, földrajzi hosszúság: 098-58-59W, magasság: 382 m

Jelenlegi meteorológiai megfigyelések

A jelentés 46 perccel ezelõtt készült, 21:53 UTC
Déli szél 9 kt széllökések: 19 kt
Hőmérséklet 34°C
Páratartalom 44%
Légköri nyomás 1018 hPa
Látótávolság: 16.1 km
Szórványos felhőzet 6000 lábon

METAR: KFDR 212153Z AUTO 17009G19KT 10SM SCT060 34/20 A3005 RMK AO2 SLP156 T03440200

Idő: 17:39 (22:39 UTC)


TAF: hiányzik

Meteorológiai megfigyelések és előrejelzések több, mint 4000 repülőtéren (METAR és TAF jelentéseket).

A térképen piros és sárga pontok jelzik az elérhető meteorológiai állomásokat.

Mozgassa az egeret a pont fölött, hogy megjelenjen az állomás neve.

Azután kattintson az időjárási megfigyelések és előrejelzések megtekintéséhez.

A térkép megváltoztatása: kattintson a fekete keresztel jelölt zöld gombra ráközelítéshez, a vonallal jelölt zöld gombra távolításhoz, vagy a zöld nyilakra a szomszédos térképek eléréséhez.


METAR-TAF: